sensor_id;sensor_type;location;lat;lon;timestamp;P1;durP1;ratioP1;P2;durP2;ratioP2
76854;SDS011;66343;44.588;33.450;2023-02-12T07:44:09;15.10;;;6.10;;
76854;SDS011;66343;44.588;33.450;2023-02-12T07:46:44;14.25;;;5.25;;
76854;SDS011;66343;44.588;33.450;2023-02-12T07:49:19;11.77;;;5.15;;
76854;SDS011;66343;44.588;33.450;2023-02-12T07:51:52;15.48;;;5.57;;
76854;SDS011;66343;44.588;33.450;2023-02-12T07:54:25;14.73;;;6.25;;
76854;SDS011;66343;44.588;33.450;2023-02-12T07:56:56;14.88;;;6.10;;
76854;SDS011;66343;44.588;33.450;2023-02-12T07:59:32;14.40;;;6.07;;
76854;SDS011;66343;44.588;33.450;2023-02-12T08:02:05;14.25;;;6.38;;
76854;SDS011;66343;44.588;33.450;2023-02-12T08:04:35;12.23;;;5.50;;
76854;SDS011;66343;44.588;33.450;2023-02-12T08:07:08;13.13;;;5.78;;
76854;SDS011;66343;44.588;33.450;2023-02-12T08:12:04;11.85;;;4.72;;
76854;SDS011;66343;44.588;33.450;2023-02-12T08:14:34;14.43;;;5.65;;
76854;SDS011;66343;44.588;33.450;2023-02-12T08:17:06;16.67;;;6.43;;
76854;SDS011;66343;44.588;33.450;2023-02-12T08:19:39;15.90;;;6.13;;
76854;SDS011;66343;44.588;33.450;2023-02-12T08:22:08;14.43;;;6.20;;
76854;SDS011;66343;44.588;33.450;2023-02-12T08:24:40;13.75;;;5.78;;
76854;SDS011;66343;44.588;33.450;2023-02-12T08:27:10;13.90;;;5.80;;
76854;SDS011;66343;44.588;33.450;2023-02-12T08:29:45;13.20;;;5.53;;
76854;SDS011;66343;44.588;33.450;2023-02-12T08:32:15;15.15;;;6.15;;
76854;SDS011;66343;44.588;33.450;2023-02-12T08:34:47;15.02;;;6.63;;
76854;SDS011;66343;44.588;33.450;2023-02-12T08:37:18;17.52;;;6.97;;
76854;SDS011;66343;44.588;33.450;2023-02-12T08:39:48;17.30;;;7.53;;
76854;SDS011;66343;44.588;33.450;2023-02-12T08:42:20;14.38;;;6.57;;
76854;SDS011;66343;44.588;33.450;2023-02-12T08:44:51;14.68;;;6.97;;
76854;SDS011;66343;44.588;33.450;2023-02-12T08:47:20;15.10;;;7.03;;
76854;SDS011;66343;44.588;33.450;2023-02-12T08:49:52;19.42;;;7.30;;
76854;SDS011;66343;44.588;33.450;2023-02-12T08:52:23;16.92;;;7.35;;
76854;SDS011;66343;44.588;33.450;2023-02-12T08:54:53;16.98;;;7.13;;
76854;SDS011;66343;44.588;33.450;2023-02-12T08:57:23;17.38;;;7.30;;
76854;SDS011;66343;44.588;33.450;2023-02-12T08:59:55;17.75;;;7.72;;
76854;SDS011;66343;44.588;33.450;2023-02-12T09:02:26;14.07;;;7.28;;
76854;SDS011;66343;44.588;33.450;2023-02-12T09:04:56;13.32;;;6.53;;
76854;SDS011;66343;44.588;33.450;2023-02-12T09:07:27;16.02;;;7.00;;
76854;SDS011;66343;44.588;33.450;2023-02-12T09:09:57;17.85;;;7.90;;
76854;SDS011;66343;44.588;33.450;2023-02-12T09:12:29;18.52;;;8.07;;
76854;SDS011;66343;44.588;33.450;2023-02-12T09:15:00;23.15;;;7.85;;
76854;SDS011;66343;44.588;33.450;2023-02-12T09:17:30;16.08;;;7.85;;
76854;SDS011;66343;44.588;33.450;2023-02-12T09:19:59;15.98;;;6.53;;
76854;SDS011;66343;44.588;33.450;2023-02-12T09:22:30;17.10;;;7.18;;
76854;SDS011;66343;44.588;33.450;2023-02-12T09:24:59;16.17;;;6.90;;
76854;SDS011;66343;44.588;33.450;2023-02-12T09:27:28;16.38;;;6.95;;
76854;SDS011;66343;44.588;33.450;2023-02-12T09:29:58;14.55;;;6.57;;
76854;SDS011;66343;44.588;33.450;2023-02-12T09:32:29;17.65;;;8.82;;
76854;SDS011;66343;44.588;33.450;2023-02-12T09:35:01;14.88;;;7.30;;
76854;SDS011;66343;44.588;33.450;2023-02-12T09:37:30;13.57;;;7.32;;
76854;SDS011;66343;44.588;33.450;2023-02-12T09:40:05;14.35;;;7.18;;
76854;SDS011;66343;44.588;33.450;2023-02-12T09:42:42;14.55;;;6.90;;
76854;SDS011;66343;44.588;33.450;2023-02-12T09:45:37;14.93;;;6.60;;
76854;SDS011;66343;44.588;33.450;2023-02-12T09:49:13;14.52;;;6.55;;
76854;SDS011;66343;44.588;33.450;2023-02-12T09:51:26;14.95;;;6.88;;
76854;SDS011;66343;44.588;33.450;2023-02-12T09:54:05;18.35;;;7.53;;
76854;SDS011;66343;44.588;33.450;2023-02-12T09:56:39;18.45;;;8.93;;
76854;SDS011;66343;44.588;33.450;2023-02-12T09:59:20;16.17;;;7.38;;
76854;SDS011;66343;44.588;33.450;2023-02-12T10:02:11;17.88;;;7.70;;
76854;SDS011;66343;44.588;33.450;2023-02-12T10:04:43;18.33;;;8.10;;
76854;SDS011;66343;44.588;33.450;2023-02-12T10:10:30;19.45;;;8.73;;
76854;SDS011;66343;44.588;33.450;2023-02-12T10:22:48;22.75;;;10.65;;
76854;SDS011;66343;44.588;33.450;2023-02-12T10:25:47;22.58;;;10.02;;
76854;SDS011;66343;44.588;33.450;2023-02-12T10:34:25;27.27;;;11.70;;
76854;SDS011;66343;44.588;33.450;2023-02-12T10:39:41;23.08;;;10.68;;
76854;SDS011;66343;44.588;33.450;2023-02-12T10:42:39;21.02;;;11.10;;
76854;SDS011;66343;44.588;33.450;2023-02-12T10:45:20;23.92;;;12.55;;
76854;SDS011;66343;44.588;33.450;2023-02-12T10:48:47;22.45;;;12.95;;
76854;SDS011;66343;44.588;33.450;2023-02-12T10:54:37;23.48;;;11.93;;
76854;SDS011;66343;44.588;33.450;2023-02-12T10:57:27;27.58;;;12.80;;
76854;SDS011;66343;44.588;33.450;2023-02-12T11:00:19;21.88;;;12.02;;
76854;SDS011;66343;44.588;33.450;2023-02-12T11:05:43;21.42;;;11.02;;
76854;SDS011;66343;44.588;33.450;2023-02-12T11:08:25;23.38;;;12.57;;
76854;SDS011;66343;44.588;33.450;2023-02-12T11:11:07;23.10;;;12.23;;
76854;SDS011;66343;44.588;33.450;2023-02-12T11:14:38;23.77;;;11.80;;
76854;SDS011;66343;44.588;33.450;2023-02-12T11:16:53;25.08;;;12.27;;
76854;SDS011;66343;44.588;33.450;2023-02-12T11:19:28;28.42;;;13.32;;
76854;SDS011;66343;44.588;33.450;2023-02-12T11:22:05;20.73;;;11.48;;
76854;SDS011;66343;44.588;33.450;2023-02-12T11:25:01;23.35;;;12.15;;
76854;SDS011;66343;44.588;33.450;2023-02-12T11:27:44;24.20;;;12.40;;
76854;SDS011;66343;44.588;33.450;2023-02-12T11:30:29;24.70;;;12.40;;
76854;SDS011;66343;44.588;33.450;2023-02-12T11:33:18;24.40;;;12.52;;
76854;SDS011;66343;44.588;33.450;2023-02-12T11:36:22;25.90;;;11.45;;
76854;SDS011;66343;44.588;33.450;2023-02-12T11:38:55;21.65;;;11.43;;
76854;SDS011;66343;44.588;33.450;2023-02-12T11:41:39;21.42;;;11.15;;
76854;SDS011;66343;44.588;33.450;2023-02-12T11:44:17;23.83;;;11.85;;
76854;SDS011;66343;44.588;33.450;2023-02-12T11:46:56;21.67;;;11.27;;
76854;SDS011;66343;44.588;33.450;2023-02-12T11:49:38;24.35;;;12.27;;
76854;SDS011;66343;44.588;33.450;2023-02-12T11:52:26;22.00;;;10.98;;
76854;SDS011;66343;44.588;33.450;2023-02-12T11:55:03;20.83;;;9.50;;
76854;SDS011;66343;44.588;33.450;2023-02-12T12:00:18;22.75;;;11.63;;
76854;SDS011;66343;44.588;33.450;2023-02-12T12:03:10;22.00;;;11.20;;
76854;SDS011;66343;44.588;33.450;2023-02-12T12:08:47;20.95;;;11.48;;
76854;SDS011;66343;44.588;33.450;2023-02-12T12:11:37;23.48;;;11.85;;
76854;SDS011;66343;44.588;33.450;2023-02-12T12:17:02;21.15;;;11.15;;
76854;SDS011;66343;44.588;33.450;2023-02-12T12:20:03;24.90;;;13.25;;
76854;SDS011;66343;44.588;33.450;2023-02-12T12:23:02;23.25;;;12.60;;
76854;SDS011;66343;44.588;33.450;2023-02-12T12:25:47;22.50;;;12.38;;
76854;SDS011;66343;44.588;33.450;2023-02-12T12:28:34;22.02;;;11.63;;
76854;SDS011;66343;44.588;33.450;2023-02-12T12:31:16;24.58;;;14.15;;
76854;SDS011;66343;44.588;33.450;2023-02-12T12:34:02;24.33;;;13.48;;
76854;SDS011;66343;44.588;33.450;2023-02-12T12:36:58;26.00;;;13.35;;
76854;SDS011;66343;44.588;33.450;2023-02-12T12:51:10;24.00;;;13.15;;
76854;SDS011;66343;44.588;33.450;2023-02-12T13:02:55;28.50;;;14.90;;
76854;SDS011;66343;44.588;33.450;2023-02-12T13:05:43;26.70;;;13.75;;
76854;SDS011;66343;44.588;33.450;2023-02-12T13:08:46;28.98;;;15.30;;
76854;SDS011;66343;44.588;33.450;2023-02-12T13:11:54;26.83;;;13.98;;
76854;SDS011;66343;44.588;33.450;2023-02-12T13:14:30;25.52;;;13.77;;
76854;SDS011;66343;44.588;33.450;2023-02-12T13:28:41;27.88;;;14.75;;
76854;SDS011;66343;44.588;33.450;2023-02-12T13:31:25;26.98;;;13.50;;
76854;SDS011;66343;44.588;33.450;2023-02-12T13:34:01;32.60;;;14.77;;
76854;SDS011;66343;44.588;33.450;2023-02-12T13:36:35;28.48;;;15.48;;
76854;SDS011;66343;44.588;33.450;2023-02-12T13:41:43;28.42;;;14.60;;
76854;SDS011;66343;44.588;33.450;2023-02-12T13:44:25;30.95;;;14.10;;
76854;SDS011;66343;44.588;33.450;2023-02-12T13:47:20;28.98;;;14.95;;
76854;SDS011;66343;44.588;33.450;2023-02-12T13:52:57;30.25;;;14.57;;
76854;SDS011;66343;44.588;33.450;2023-02-12T13:55:35;32.40;;;15.38;;
76854;SDS011;66343;44.588;33.450;2023-02-12T14:01:37;28.27;;;15.60;;
76854;SDS011;66343;44.588;33.450;2023-02-12T14:06:52;30.58;;;15.18;;
76854;SDS011;66343;44.588;33.450;2023-02-12T14:09:43;32.72;;;14.95;;
76854;SDS011;66343;44.588;33.450;2023-02-12T14:15:29;28.17;;;13.88;;
76854;SDS011;66343;44.588;33.450;2023-02-12T14:23:50;24.05;;;12.80;;
76854;SDS011;66343;44.588;33.450;2023-02-12T14:26:41;24.08;;;11.73;;
76854;SDS011;66343;44.588;33.450;2023-02-12T14:29:18;23.67;;;11.98;;
76854;SDS011;66343;44.588;33.450;2023-02-12T14:31:52;26.27;;;12.00;;
76854;SDS011;66343;44.588;33.450;2023-02-12T14:37:33;27.02;;;13.05;;
76854;SDS011;66343;44.588;33.450;2023-02-12T14:43:29;26.95;;;14.07;;
76854;SDS011;66343;44.588;33.450;2023-02-12T14:48:58;28.33;;;12.93;;
76854;SDS011;66343;44.588;33.450;2023-02-12T14:51:40;27.70;;;13.63;;
76854;SDS011;66343;44.588;33.450;2023-02-12T14:57:25;24.90;;;13.20;;
76854;SDS011;66343;44.588;33.450;2023-02-12T15:08:44;25.35;;;13.00;;
76854;SDS011;66343;44.588;33.450;2023-02-12T15:14:14;24.35;;;12.20;;
76854;SDS011;66343;44.588;33.450;2023-02-12T15:17:14;24.83;;;13.00;;
76854;SDS011;66343;44.588;33.450;2023-02-12T15:20:07;21.17;;;11.57;;
76854;SDS011;66343;44.588;33.450;2023-02-12T15:23:23;18.13;;;9.38;;
76854;SDS011;66343;44.588;33.450;2023-02-12T15:26:02;19.52;;;9.05;;
76854;SDS011;66343;44.588;33.450;2023-02-12T15:28:36;20.08;;;10.20;;
76854;SDS011;66343;44.588;33.450;2023-02-12T15:31:13;18.90;;;10.10;;
76854;SDS011;66343;44.588;33.450;2023-02-12T15:33:50;20.30;;;10.43;;
76854;SDS011;66343;44.588;33.450;2023-02-12T15:38:58;17.92;;;9.35;;
76854;SDS011;66343;44.588;33.450;2023-02-12T15:41:36;21.55;;;9.75;;
76854;SDS011;66343;44.588;33.450;2023-02-12T15:49:43;18.33;;;9.40;;
76854;SDS011;66343;44.588;33.450;2023-02-12T15:52:16;18.33;;;9.43;;
76854;SDS011;66343;44.588;33.450;2023-02-12T15:54:54;20.98;;;9.90;;
76854;SDS011;66343;44.588;33.450;2023-02-12T15:57:35;21.38;;;10.90;;
76854;SDS011;66343;44.588;33.450;2023-02-12T16:00:19;20.63;;;10.15;;
76854;SDS011;66343;44.588;33.450;2023-02-12T16:03:03;22.55;;;11.65;;
76854;SDS011;66343;44.588;33.450;2023-02-12T16:05:44;23.42;;;12.18;;
76854;SDS011;66343;44.588;33.450;2023-02-12T16:08:15;20.63;;;11.80;;
76854;SDS011;66343;44.588;33.450;2023-02-12T16:10:51;26.40;;;12.65;;
76854;SDS011;66343;44.588;33.450;2023-02-12T16:13:30;26.48;;;12.48;;
76854;SDS011;66343;44.588;33.450;2023-02-12T16:16:16;25.25;;;12.38;;
76854;SDS011;66343;44.588;33.450;2023-02-12T16:24:40;23.80;;;12.35;;
76854;SDS011;66343;44.588;33.450;2023-02-12T16:27:19;24.08;;;12.00;;
76854;SDS011;66343;44.588;33.450;2023-02-12T16:29:53;21.60;;;11.63;;
76854;SDS011;66343;44.588;33.450;2023-02-12T16:32:36;24.17;;;11.75;;
76854;SDS011;66343;44.588;33.450;2023-02-12T16:37:45;23.45;;;10.95;;
76854;SDS011;66343;44.588;33.450;2023-02-12T16:40:21;21.13;;;10.90;;
76854;SDS011;66343;44.588;33.450;2023-02-12T16:43:03;22.05;;;11.68;;
76854;SDS011;66343;44.588;33.450;2023-02-12T16:46:00;25.42;;;12.00;;
76854;SDS011;66343;44.588;33.450;2023-02-12T16:48:53;21.73;;;11.23;;
76854;SDS011;66343;44.588;33.450;2023-02-12T16:54:04;16.05;;;7.30;;
76854;SDS011;66343;44.588;33.450;2023-02-12T16:56:56;14.27;;;7.07;;
76854;SDS011;66343;44.588;33.450;2023-02-12T16:59:33;17.52;;;7.90;;
76854;SDS011;66343;44.588;33.450;2023-02-12T17:02:12;15.77;;;6.88;;
76854;SDS011;66343;44.588;33.450;2023-02-12T17:04:43;12.30;;;5.35;;
76854;SDS011;66343;44.588;33.450;2023-02-12T17:07:17;12.90;;;5.07;;
76854;SDS011;66343;44.588;33.450;2023-02-12T17:09:55;9.63;;;3.88;;
76854;SDS011;66343;44.588;33.450;2023-02-12T17:12:28;9.35;;;3.38;;
76854;SDS011;66343;44.588;33.450;2023-02-12T17:15:05;8.50;;;3.25;;
76854;SDS011;66343;44.588;33.450;2023-02-12T17:17:43;7.78;;;2.60;;
76854;SDS011;66343;44.588;33.450;2023-02-12T17:20:19;7.30;;;2.58;;
76854;SDS011;66343;44.588;33.450;2023-02-12T17:22:58;8.02;;;2.90;;
76854;SDS011;66343;44.588;33.450;2023-02-12T17:25:30;7.15;;;2.80;;
76854;SDS011;66343;44.588;33.450;2023-02-12T17:28:07;9.85;;;3.20;;
76854;SDS011;66343;44.588;33.450;2023-02-12T17:30:39;8.15;;;2.30;;
76854;SDS011;66343;44.588;33.450;2023-02-12T17:33:10;7.95;;;2.55;;
76854;SDS011;66343;44.588;33.450;2023-02-12T17:35:41;7.68;;;2.90;;
76854;SDS011;66343;44.588;33.450;2023-02-12T17:38:15;6.97;;;2.45;;
76854;SDS011;66343;44.588;33.450;2023-02-12T17:40:47;8.27;;;2.80;;
76854;SDS011;66343;44.588;33.450;2023-02-12T17:43:25;7.57;;;2.63;;
76854;SDS011;66343;44.588;33.450;2023-02-12T17:46:06;7.65;;;2.33;;
76854;SDS011;66343;44.588;33.450;2023-02-12T17:48:41;8.63;;;2.70;;
76854;SDS011;66343;44.588;33.450;2023-02-12T17:51:12;8.18;;;2.80;;
76854;SDS011;66343;44.588;33.450;2023-02-12T17:53:46;7.00;;;2.38;;
76854;SDS011;66343;44.588;33.450;2023-02-12T17:56:19;7.95;;;2.05;;
76854;SDS011;66343;44.588;33.450;2023-02-12T17:58:54;7.20;;;1.92;;
76854;SDS011;66343;44.588;33.450;2023-02-12T18:01:27;8.10;;;2.60;;
76854;SDS011;66343;44.588;33.450;2023-02-12T18:03:57;7.78;;;2.22;;
76854;SDS011;66343;44.588;33.450;2023-02-12T18:06:29;6.28;;;1.98;;
76854;SDS011;66343;44.588;33.450;2023-02-12T18:08:59;6.97;;;2.22;;
76854;SDS011;66343;44.588;33.450;2023-02-12T18:11:29;5.75;;;1.83;;
76854;SDS011;66343;44.588;33.450;2023-02-12T18:14:00;6.45;;;2.00;;
76854;SDS011;66343;44.588;33.450;2023-02-12T18:16:34;6.63;;;1.83;;
76854;SDS011;66343;44.588;33.450;2023-02-12T18:19:08;6.60;;;1.40;;
76854;SDS011;66343;44.588;33.450;2023-02-12T18:21:40;6.85;;;1.58;;
76854;SDS011;66343;44.588;33.450;2023-02-12T18:24:10;5.90;;;1.50;;
76854;SDS011;66343;44.588;33.450;2023-02-12T18:26:39;4.70;;;1.25;;
76854;SDS011;66343;44.588;33.450;2023-02-12T18:29:13;6.10;;;1.60;;
76854;SDS011;66343;44.588;33.450;2023-02-12T18:31:43;4.30;;;1.25;;
76854;SDS011;66343;44.588;33.450;2023-02-12T18:34:16;6.80;;;1.60;;
76854;SDS011;66343;44.588;33.450;2023-02-12T18:36:47;4.57;;;1.20;;
76854;SDS011;66343;44.588;33.450;2023-02-12T18:39:19;5.03;;;1.13;;
76854;SDS011;66343;44.588;33.450;2023-02-12T18:41:51;5.63;;;1.20;;
76854;SDS011;66343;44.588;33.450;2023-02-12T18:44:26;6.05;;;1.23;;
76854;SDS011;66343;44.588;33.450;2023-02-12T18:46:55;5.18;;;1.52;;
76854;SDS011;66343;44.588;33.450;2023-02-12T18:49:27;4.32;;;1.15;;
76854;SDS011;66343;44.588;33.450;2023-02-12T18:51:56;6.65;;;1.52;;
76854;SDS011;66343;44.588;33.450;2023-02-12T18:54:28;7.07;;;1.38;;
76854;SDS011;66343;44.588;33.450;2023-02-12T18:56:57;3.95;;;1.00;;
76854;SDS011;66343;44.588;33.450;2023-02-12T18:59:27;5.15;;;1.20;;
76854;SDS011;66343;44.588;33.450;2023-02-12T19:01:58;4.03;;;1.25;;
76854;SDS011;66343;44.588;33.450;2023-02-12T19:04:28;5.03;;;1.20;;
76854;SDS011;66343;44.588;33.450;2023-02-12T19:06:57;5.35;;;1.20;;
76854;SDS011;66343;44.588;33.450;2023-02-12T19:09:27;3.20;;;1.20;;
76854;SDS011;66343;44.588;33.450;2023-02-12T19:11:57;9.82;;;1.50;;
76854;SDS011;66343;44.588;33.450;2023-02-12T19:14:28;4.75;;;1.25;;
76854;SDS011;66343;44.588;33.450;2023-02-12T19:17:01;5.13;;;1.40;;
76854;SDS011;66343;44.588;33.450;2023-02-12T19:19:51;9.60;;;1.48;;
76854;SDS011;66343;44.588;33.450;2023-02-12T19:22:23;4.22;;;1.33;;
76854;SDS011;66343;44.588;33.450;2023-02-12T19:24:53;5.10;;;1.25;;
76854;SDS011;66343;44.588;33.450;2023-02-12T19:27:25;15.93;;;4.70;;
76854;SDS011;66343;44.588;33.450;2023-02-12T19:30:02;7.32;;;1.52;;
76854;SDS011;66343;44.588;33.450;2023-02-12T19:32:40;5.38;;;1.30;;
76854;SDS011;66343;44.588;33.450;2023-02-12T19:35:15;5.05;;;1.10;;
76854;SDS011;66343;44.588;33.450;2023-02-12T19:37:54;5.95;;;1.35;;
76854;SDS011;66343;44.588;33.450;2023-02-12T19:40:26;4.47;;;1.38;;
76854;SDS011;66343;44.588;33.450;2023-02-12T19:43:01;5.38;;;1.30;;
76854;SDS011;66343;44.588;33.450;2023-02-12T19:45:37;5.50;;;1.33;;
76854;SDS011;66343;44.588;33.450;2023-02-12T19:48:15;7.55;;;1.38;;
76854;SDS011;66343;44.588;33.450;2023-02-12T19:50:47;3.78;;;1.23;;
76854;SDS011;66343;44.588;33.450;2023-02-12T19:53:17;6.03;;;1.25;;
76854;SDS011;66343;44.588;33.450;2023-02-12T19:55:51;4.82;;;1.30;;
76854;SDS011;66343;44.588;33.450;2023-02-12T19:58:27;4.65;;;1.33;;
76854;SDS011;66343;44.588;33.450;2023-02-12T20:01:06;7.57;;;1.63;;
76854;SDS011;66343;44.588;33.450;2023-02-12T20:03:37;5.30;;;1.20;;
76854;SDS011;66343;44.588;33.450;2023-02-12T20:06:07;4.20;;;1.10;;
76854;SDS011;66343;44.588;33.450;2023-02-12T20:08:41;6.25;;;1.30;;
76854;SDS011;66343;44.588;33.450;2023-02-12T20:11:23;4.75;;;1.30;;
76854;SDS011;66343;44.588;33.450;2023-02-12T20:13:59;6.97;;;1.83;;
76854;SDS011;66343;44.588;33.450;2023-02-12T20:16:29;7.53;;;1.30;;
76854;SDS011;66343;44.588;33.450;2023-02-12T20:19:11;6.45;;;1.60;;
76854;SDS011;66343;44.588;33.450;2023-02-12T20:21:46;5.88;;;1.23;;
76854;SDS011;66343;44.588;33.450;2023-02-12T20:24:24;6.88;;;1.50;;
76854;SDS011;66343;44.588;33.450;2023-02-12T20:26:59;5.28;;;1.20;;
76854;SDS011;66343;44.588;33.450;2023-02-12T20:29:30;5.28;;;1.55;;
76854;SDS011;66343;44.588;33.450;2023-02-12T20:32:03;6.32;;;1.40;;
76854;SDS011;66343;44.588;33.450;2023-02-12T20:34:37;5.97;;;1.45;;
76854;SDS011;66343;44.588;33.450;2023-02-12T20:37:17;7.57;;;1.30;;
76854;SDS011;66343;44.588;33.450;2023-02-12T20:39:49;5.75;;;1.40;;
76854;SDS011;66343;44.588;33.450;2023-02-12T20:42:18;5.20;;;1.67;;
76854;SDS011;66343;44.588;33.450;2023-02-12T20:44:50;6.68;;;1.88;;
76854;SDS011;66343;44.588;33.450;2023-02-12T20:47:24;8.15;;;1.33;;
76854;SDS011;66343;44.588;33.450;2023-02-12T20:49:56;8.60;;;2.55;;
76854;SDS011;66343;44.588;33.450;2023-02-12T20:52:26;6.75;;;1.73;;
76854;SDS011;66343;44.588;33.450;2023-02-12T20:54:55;9.13;;;1.67;;
76854;SDS011;66343;44.588;33.450;2023-02-12T20:57:24;7.78;;;1.58;;
76854;SDS011;66343;44.588;33.450;2023-02-12T20:59:54;5.93;;;1.70;;
76854;SDS011;66343;44.588;33.450;2023-02-12T21:02:27;5.22;;;1.42;;
76854;SDS011;66343;44.588;33.450;2023-02-12T21:04:59;5.70;;;1.30;;
76854;SDS011;66343;44.588;33.450;2023-02-12T21:07:28;6.18;;;1.30;;
76854;SDS011;66343;44.588;33.450;2023-02-12T21:09:59;4.88;;;1.05;;
76854;SDS011;66343;44.588;33.450;2023-02-12T21:12:30;8.35;;;2.00;;
76854;SDS011;66343;44.588;33.450;2023-02-12T21:14:59;4.82;;;1.10;;
76854;SDS011;66343;44.588;33.450;2023-02-12T21:17:31;5.50;;;1.48;;
76854;SDS011;66343;44.588;33.450;2023-02-12T21:20:03;5.05;;;1.05;;
76854;SDS011;66343;44.588;33.450;2023-02-12T21:22:36;6.00;;;1.20;;
76854;SDS011;66343;44.588;33.450;2023-02-12T21:25:05;6.43;;;1.50;;
76854;SDS011;66343;44.588;33.450;2023-02-12T21:27:34;8.75;;;1.52;;
76854;SDS011;66343;44.588;33.450;2023-02-12T21:30:10;5.75;;;1.52;;
76854;SDS011;66343;44.588;33.450;2023-02-12T21:32:39;3.80;;;0.90;;
76854;SDS011;66343;44.588;33.450;2023-02-12T21:35:08;6.22;;;1.25;;
76854;SDS011;66343;44.588;33.450;2023-02-12T21:37:37;4.50;;;1.15;;
76854;SDS011;66343;44.588;33.450;2023-02-12T21:40:06;4.90;;;1.38;;
76854;SDS011;66343;44.588;33.450;2023-02-12T21:42:36;5.93;;;1.35;;
76854;SDS011;66343;44.588;33.450;2023-02-12T21:45:07;6.32;;;1.30;;
76854;SDS011;66343;44.588;33.450;2023-02-12T21:47:40;5.93;;;1.20;;
76854;SDS011;66343;44.588;33.450;2023-02-12T21:50:09;5.07;;;1.27;;
76854;SDS011;66343;44.588;33.450;2023-02-12T21:52:44;5.32;;;1.30;;
76854;SDS011;66343;44.588;33.450;2023-02-12T21:55:13;5.60;;;0.93;;
76854;SDS011;66343;44.588;33.450;2023-02-12T21:57:43;6.05;;;1.63;;
76854;SDS011;66343;44.588;33.450;2023-02-12T22:00:20;6.25;;;1.23;;
76854;SDS011;66343;44.588;33.450;2023-02-12T22:02:51;6.82;;;1.15;;
76854;SDS011;66343;44.588;33.450;2023-02-12T22:05:22;5.05;;;1.15;;
76854;SDS011;66343;44.588;33.450;2023-02-12T22:07:54;4.82;;;1.20;;
76854;SDS011;66343;44.588;33.450;2023-02-12T22:10:26;4.57;;;0.80;;
76854;SDS011;66343;44.588;33.450;2023-02-12T22:12:55;5.40;;;1.00;;
76854;SDS011;66343;44.588;33.450;2023-02-12T22:15:24;3.72;;;1.00;;
76854;SDS011;66343;44.588;33.450;2023-02-12T22:17:53;4.55;;;1.10;;
76854;SDS011;66343;44.588;33.450;2023-02-12T22:20:25;3.63;;;0.88;;
76854;SDS011;66343;44.588;33.450;2023-02-12T22:22:54;5.75;;;1.33;;
76854;SDS011;66343;44.588;33.450;2023-02-12T22:25:23;5.10;;;1.10;;
76854;SDS011;66343;44.588;33.450;2023-02-12T22:27:54;2.88;;;0.88;;
76854;SDS011;66343;44.588;33.450;2023-02-12T22:30:23;4.35;;;1.10;;
76854;SDS011;66343;44.588;33.450;2023-02-12T22:32:52;5.72;;;1.30;;
76854;SDS011;66343;44.588;33.450;2023-02-12T22:35:21;5.68;;;1.10;;
76854;SDS011;66343;44.588;33.450;2023-02-12T22:37:51;5.80;;;1.38;;
76854;SDS011;66343;44.588;33.450;2023-02-12T22:40:23;4.47;;;1.08;;
76854;SDS011;66343;44.588;33.450;2023-02-12T22:42:55;4.75;;;1.23;;
76854;SDS011;66343;44.588;33.450;2023-02-12T22:45:24;2.67;;;1.13;;
76854;SDS011;66343;44.588;33.450;2023-02-12T22:47:53;4.57;;;0.95;;
76854;SDS011;66343;44.588;33.450;2023-02-12T22:50:22;3.58;;;0.90;;
76854;SDS011;66343;44.588;33.450;2023-02-12T22:52:51;6.63;;;1.48;;
76854;SDS011;66343;44.588;33.450;2023-02-12T22:55:21;7.18;;;1.73;;
76854;SDS011;66343;44.588;33.450;2023-02-12T22:57:52;4.63;;;1.00;;
76854;SDS011;66343;44.588;33.450;2023-02-12T23:00:24;3.53;;;0.90;;
76854;SDS011;66343;44.588;33.450;2023-02-12T23:02:53;4.97;;;0.90;;
76854;SDS011;66343;44.588;33.450;2023-02-12T23:05:24;6.25;;;1.20;;
76854;SDS011;66343;44.588;33.450;2023-02-12T23:07:53;4.28;;;0.93;;
76854;SDS011;66343;44.588;33.450;2023-02-12T23:10:22;2.42;;;0.75;;
76854;SDS011;66343;44.588;33.450;2023-02-12T23:12:51;3.72;;;1.20;;
76854;SDS011;66343;44.588;33.450;2023-02-12T23:15:20;4.88;;;0.98;;
76854;SDS011;66343;44.588;33.450;2023-02-12T23:17:52;3.30;;;0.80;;
76854;SDS011;66343;44.588;33.450;2023-02-12T23:20:21;3.22;;;0.73;;
76854;SDS011;66343;44.588;33.450;2023-02-12T23:22:53;5.55;;;1.10;;
76854;SDS011;66343;44.588;33.450;2023-02-12T23:25:22;5.40;;;0.80;;
76854;SDS011;66343;44.588;33.450;2023-02-12T23:27:52;7.32;;;1.48;;
76854;SDS011;66343;44.588;33.450;2023-02-12T23:30:21;4.88;;;0.93;;
76854;SDS011;66343;44.588;33.450;2023-02-12T23:32:50;4.57;;;1.00;;
76854;SDS011;66343;44.588;33.450;2023-02-12T23:35:19;4.10;;;0.98;;
76854;SDS011;66343;44.588;33.450;2023-02-12T23:37:48;3.88;;;1.00;;
76854;SDS011;66343;44.588;33.450;2023-02-12T23:40:18;5.47;;;1.27;;
76854;SDS011;66343;44.588;33.450;2023-02-12T23:42:47;6.90;;;1.23;;
76854;SDS011;66343;44.588;33.450;2023-02-12T23:45:19;4.00;;;0.90;;
76854;SDS011;66343;44.588;33.450;2023-02-12T23:47:49;5.72;;;0.90;;
76854;SDS011;66343;44.588;33.450;2023-02-12T23:50:21;3.95;;;0.82;;
76854;SDS011;66343;44.588;33.450;2023-02-12T23:52:53;3.53;;;0.90;;
76854;SDS011;66343;44.588;33.450;2023-02-12T23:55:22;4.82;;;0.80;;
76854;SDS011;66343;44.588;33.450;2023-02-12T23:57:52;3.70;;;0.90;;
